sensor_id;sensor_type;location;lat;lon;timestamp;temperature;humidity
6879;DHT22;3478;51.462;7.338;2023-03-05T00:01:12;5.20;1.00
6879;DHT22;3478;51.462;7.338;2023-03-05T00:06:14;5.10;1.00
6879;DHT22;3478;51.462;7.338;2023-03-05T00:11:16;5.10;1.00
6879;DHT22;3478;51.462;7.338;2023-03-05T00:16:20;5.00;1.00
6879;DHT22;3478;51.462;7.338;2023-03-05T00:21:24;4.90;1.00
6879;DHT22;3478;51.462;7.338;2023-03-05T00:26:26;4.90;99.90
6879;DHT22;3478;51.462;7.338;2023-03-05T00:31:31;4.80;99.90
6879;DHT22;3478;51.462;7.338;2023-03-05T00:36:37;4.80;1.00
6879;DHT22;3478;51.462;7.338;2023-03-05T00:41:39;4.70;16.20
6879;DHT22;3478;51.462;7.338;2023-03-05T00:46:43;4.70;1.00
6879;DHT22;3478;51.462;7.338;2023-03-05T00:51:45;4.80;1.00
6879;DHT22;3478;51.462;7.338;2023-03-05T00:56:47;4.70;1.00
6879;DHT22;3478;51.462;7.338;2023-03-05T01:01:50;4.70;1.00
6879;DHT22;3478;51.462;7.338;2023-03-05T01:06:52;4.70;1.00
6879;DHT22;3478;51.462;7.338;2023-03-05T01:11:54;4.60;99.90
6879;DHT22;3478;51.462;7.338;2023-03-05T01:16:57;4.60;1.00
6879;DHT22;3478;51.462;7.338;2023-03-05T01:21:59;4.50;1.00
6879;DHT22;3478;51.462;7.338;2023-03-05T01:27:01;4.40;1.00
6879;DHT22;3478;51.462;7.338;2023-03-05T01:32:04;4.40;1.00
6879;DHT22;3478;51.462;7.338;2023-03-05T01:37:06;4.50;99.90
6879;DHT22;3478;51.462;7.338;2023-03-05T01:42:08;4.50;1.00
6879;DHT22;3478;51.462;7.338;2023-03-05T01:47:11;4.40;1.00
6879;DHT22;3478;51.462;7.338;2023-03-05T01:52:15;4.40;1.00
6879;DHT22;3478;51.462;7.338;2023-03-05T01:57:22;4.40;1.00
6879;DHT22;3478;51.462;7.338;2023-03-05T02:02:27;4.40;99.90
6879;DHT22;3478;51.462;7.338;2023-03-05T02:07:31;4.20;1.00
6879;DHT22;3478;51.462;7.338;2023-03-05T02:12:33;4.20;1.00
6879;DHT22;3478;51.462;7.338;2023-03-05T02:17:36;4.30;1.00
6879;DHT22;3478;51.462;7.338;2023-03-05T02:22:39;4.30;1.00
6879;DHT22;3478;51.462;7.338;2023-03-05T02:27:45;4.30;1.00
6879;DHT22;3478;51.462;7.338;2023-03-05T02:32:50;4.20;1.00
6879;DHT22;3478;51.462;7.338;2023-03-05T02:37:54;4.10;1.00
6879;DHT22;3478;51.462;7.338;2023-03-05T02:42:55;4.10;1.00
6879;DHT22;3478;51.462;7.338;2023-03-05T02:47:57;4.10;1.00
6879;DHT22;3478;51.462;7.338;2023-03-05T02:53:00;4.10;45.20
6879;DHT22;3478;51.462;7.338;2023-03-05T02:58:02;4.10;99.90
6879;DHT22;3478;51.462;7.338;2023-03-05T03:03:04;4.20;1.00
6879;DHT22;3478;51.462;7.338;2023-03-05T03:08:07;4.20;1.00
6879;DHT22;3478;51.462;7.338;2023-03-05T03:13:09;4.20;1.00
6879;DHT22;3478;51.462;7.338;2023-03-05T03:18:11;4.20;1.00
6879;DHT22;3478;51.462;7.338;2023-03-05T03:23:14;4.20;1.00
6879;DHT22;3478;51.462;7.338;2023-03-05T03:28:16;4.20;1.00
6879;DHT22;3478;51.462;7.338;2023-03-05T03:33:18;4.20;1.00
6879;DHT22;3478;51.462;7.338;2023-03-05T03:38:21;4.20;99.90
6879;DHT22;3478;51.462;7.338;2023-03-05T03:43:23;4.10;99.90
6879;DHT22;3478;51.462;7.338;2023-03-05T03:48:25;4.10;1.00
6879;DHT22;3478;51.462;7.338;2023-03-05T03:53:28;4.10;77.40
6879;DHT22;3478;51.462;7.338;2023-03-05T03:58:30;3.90;1.00
6879;DHT22;3478;51.462;7.338;2023-03-05T04:03:32;3.90;99.90
6879;DHT22;3478;51.462;7.338;2023-03-05T04:08:35;3.80;1.00
6879;DHT22;3478;51.462;7.338;2023-03-05T04:13:37;3.80;1.00
6879;DHT22;3478;51.462;7.338;2023-03-05T04:18:38;3.90;99.90
6879;DHT22;3478;51.462;7.338;2023-03-05T04:23:42;4.00;1.00
6879;DHT22;3478;51.462;7.338;2023-03-05T04:28:43;3.90;99.90
6879;DHT22;3478;51.462;7.338;2023-03-05T04:33:47;3.80;1.00
6879;DHT22;3478;51.462;7.338;2023-03-05T04:38:51;3.90;1.00
6879;DHT22;3478;51.462;7.338;2023-03-05T04:43:52;3.90;99.90
6879;DHT22;3478;51.462;7.338;2023-03-05T04:48:55;3.90;99.90
6879;DHT22;3478;51.462;7.338;2023-03-05T04:53:58;3.90;1.00
6879;DHT22;3478;51.462;7.338;2023-03-05T04:59:00;3.70;1.00
6879;DHT22;3478;51.462;7.338;2023-03-05T05:04:02;3.70;1.00
6879;DHT22;3478;51.462;7.338;2023-03-05T05:09:06;3.70;1.00
6879;DHT22;3478;51.462;7.338;2023-03-05T05:14:07;3.80;1.00
6879;DHT22;3478;51.462;7.338;2023-03-05T05:19:09;3.80;1.00
6879;DHT22;3478;51.462;7.338;2023-03-05T05:24:12;3.90;1.00
6879;DHT22;3478;51.462;7.338;2023-03-05T05:29:14;3.80;1.00
6879;DHT22;3478;51.462;7.338;2023-03-05T05:34:16;3.80;1.00
6879;DHT22;3478;51.462;7.338;2023-03-05T05:39:19;3.70;1.00
6879;DHT22;3478;51.462;7.338;2023-03-05T05:44:21;3.70;1.00
6879;DHT22;3478;51.462;7.338;2023-03-05T05:49:23;3.70;1.00
6879;DHT22;3478;51.462;7.338;2023-03-05T05:54:26;3.70;1.00
6879;DHT22;3478;51.462;7.338;2023-03-05T05:59:28;3.70;1.00
6879;DHT22;3478;51.462;7.338;2023-03-05T06:04:30;3.60;1.00
6879;DHT22;3478;51.462;7.338;2023-03-05T06:09:33;3.70;1.00
6879;DHT22;3478;51.462;7.338;2023-03-05T06:14:35;3.70;1.00
6879;DHT22;3478;51.462;7.338;2023-03-05T06:19:37;3.70;1.00
6879;DHT22;3478;51.462;7.338;2023-03-05T06:24:40;3.70;1.00
6879;DHT22;3478;51.462;7.338;2023-03-05T06:29:42;3.80;1.00
6879;DHT22;3478;51.462;7.338;2023-03-05T06:34:44;3.80;1.00
6879;DHT22;3478;51.462;7.338;2023-03-05T06:39:47;3.80;1.00
6879;DHT22;3478;51.462;7.338;2023-03-05T06:44:49;3.80;1.00
6879;DHT22;3478;51.462;7.338;2023-03-05T06:49:51;3.80;1.00
6879;DHT22;3478;51.462;7.338;2023-03-05T06:54:54;3.80;1.00
6879;DHT22;3478;51.462;7.338;2023-03-05T06:59:56;3.80;1.00
6879;DHT22;3478;51.462;7.338;2023-03-05T07:04:59;3.80;1.00
6879;DHT22;3478;51.462;7.338;2023-03-05T07:10:03;3.80;1.00
6879;DHT22;3478;51.462;7.338;2023-03-05T07:15:07;3.90;1.00
6879;DHT22;3478;51.462;7.338;2023-03-05T07:20:10;4.00;1.00
6879;DHT22;3478;51.462;7.338;2023-03-05T07:25:13;4.00;1.00
6879;DHT22;3478;51.462;7.338;2023-03-05T07:30:19;3.80;8.00
6879;DHT22;3478;51.462;7.338;2023-03-05T07:35:20;3.90;69.20
6879;DHT22;3478;51.462;7.338;2023-03-05T07:40:25;3.90;35.70
6879;DHT22;3478;51.462;7.338;2023-03-05T07:45:26;3.90;42.30
6879;DHT22;3478;51.462;7.338;2023-03-05T07:50:28;4.00;77.90
6879;DHT22;3478;51.462;7.338;2023-03-05T07:55:33;4.10;71.30
6879;DHT22;3478;51.462;7.338;2023-03-05T08:00:35;4.00;1.00
6879;DHT22;3478;51.462;7.338;2023-03-05T08:05:38;3.90;1.10
6879;DHT22;3478;51.462;7.338;2023-03-05T08:10:42;3.90;42.90
6879;DHT22;3478;51.462;7.338;2023-03-05T08:15:44;3.90;62.40
6879;DHT22;3478;51.462;7.338;2023-03-05T08:20:45;3.90;92.90
6879;DHT22;3478;51.462;7.338;2023-03-05T08:25:49;3.90;94.20
6879;DHT22;3478;51.462;7.338;2023-03-05T08:30:50;4.10;96.50
6879;DHT22;3478;51.462;7.338;2023-03-05T08:35:52;4.30;84.90
6879;DHT22;3478;51.462;7.338;2023-03-05T08:40:56;4.40;12.50
6879;DHT22;3478;51.462;7.338;2023-03-05T08:45:59;4.50;1.00
6879;DHT22;3478;51.462;7.338;2023-03-05T08:51:05;4.40;1.00
6879;DHT22;3478;51.462;7.338;2023-03-05T08:56:09;4.20;1.00
6879;DHT22;3478;51.462;7.338;2023-03-05T09:01:11;4.20;23.90
6879;DHT22;3478;51.462;7.338;2023-03-05T09:06:13;4.40;1.00
6879;DHT22;3478;51.462;7.338;2023-03-05T09:11:16;3.90;1.00
6879;DHT22;3478;51.462;7.338;2023-03-05T09:16:18;3.90;1.00
6879;DHT22;3478;51.462;7.338;2023-03-05T09:21:21;3.90;1.00
6879;DHT22;3478;51.462;7.338;2023-03-05T09:26:24;4.10;21.00
6879;DHT22;3478;51.462;7.338;2023-03-05T09:31:26;3.90;25.60
6879;DHT22;3478;51.462;7.338;2023-03-05T09:36:30;3.80;55.50
6879;DHT22;3478;51.462;7.338;2023-03-05T09:41:44;4.00;91.50
6879;DHT22;3478;51.462;7.338;2023-03-05T09:46:53;4.10;30.30
6879;DHT22;3478;51.462;7.338;2023-03-05T09:52:01;4.20;1.00
6879;DHT22;3478;51.462;7.338;2023-03-05T09:57:12;4.00;1.00
6879;DHT22;3478;51.462;7.338;2023-03-05T10:02:22;3.90;21.20
6879;DHT22;3478;51.462;7.338;2023-03-05T10:07:26;4.00;92.10
6879;DHT22;3478;51.462;7.338;2023-03-05T10:12:39;4.00;99.90
6879;DHT22;3478;51.462;7.338;2023-03-05T10:18:06;4.50;99.90
6879;DHT22;3478;51.462;7.338;2023-03-05T10:28:47;5.10;1.00
6879;DHT22;3478;51.462;7.338;2023-03-05T10:34:00;5.00;1.00
6879;DHT22;3478;51.462;7.338;2023-03-05T10:44:40;4.60;1.00
6879;DHT22;3478;51.462;7.338;2023-03-05T10:49:48;4.70;1.00
6879;DHT22;3478;51.462;7.338;2023-03-05T10:54:51;4.80;1.00
6879;DHT22;3478;51.462;7.338;2023-03-05T11:00:00;4.90;1.00
6879;DHT22;3478;51.462;7.338;2023-03-05T11:05:02;5.00;1.00
6879;DHT22;3478;51.462;7.338;2023-03-05T11:10:14;4.90;1.00
6879;DHT22;3478;51.462;7.338;2023-03-05T11:15:28;4.70;1.00
6879;DHT22;3478;51.462;7.338;2023-03-05T11:20:33;4.70;1.00
6879;DHT22;3478;51.462;7.338;2023-03-05T11:25:52;4.80;1.00
6879;DHT22;3478;51.462;7.338;2023-03-05T11:31:06;5.00;1.00
6879;DHT22;3478;51.462;7.338;2023-03-05T11:36:20;5.00;99.90
6879;DHT22;3478;51.462;7.338;2023-03-05T11:41:41;5.00;1.00
6879;DHT22;3478;51.462;7.338;2023-03-05T11:46:47;5.20;99.90
6879;DHT22;3478;51.462;7.338;2023-03-05T11:51:59;5.30;1.00
6879;DHT22;3478;51.462;7.338;2023-03-05T11:57:03;5.50;99.90
6879;DHT22;3478;51.462;7.338;2023-03-05T12:02:16;5.50;1.00
6879;DHT22;3478;51.462;7.338;2023-03-05T12:07:22;5.70;99.90
6879;DHT22;3478;51.462;7.338;2023-03-05T12:12:34;5.80;1.00
6879;DHT22;3478;51.462;7.338;2023-03-05T12:17:42;5.90;99.90
6879;DHT22;3478;51.462;7.338;2023-03-05T12:22:48;6.10;1.00
6879;DHT22;3478;51.462;7.338;2023-03-05T12:27:51;6.50;99.90
6879;DHT22;3478;51.462;7.338;2023-03-05T12:32:54;6.70;1.00
6879;DHT22;3478;51.462;7.338;2023-03-05T12:43:29;7.70;1.00
6879;DHT22;3478;51.462;7.338;2023-03-05T12:48:44;7.20;1.00
6879;DHT22;3478;51.462;7.338;2023-03-05T12:53:49;7.20;1.00
6879;DHT22;3478;51.462;7.338;2023-03-05T12:58:52;7.50;1.00
6879;DHT22;3478;51.462;7.338;2023-03-05T13:03:59;7.80;1.00
6879;DHT22;3478;51.462;7.338;2023-03-05T13:09:06;7.70;1.00
6879;DHT22;3478;51.462;7.338;2023-03-05T13:19:48;6.50;1.00
6879;DHT22;3478;51.462;7.338;2023-03-05T13:25:11;6.40;99.90
6879;DHT22;3478;51.462;7.338;2023-03-05T13:30:21;6.40;75.20
6879;DHT22;3478;51.462;7.338;2023-03-05T13:35:24;6.30;99.90
6879;DHT22;3478;51.462;7.338;2023-03-05T13:40:29;6.40;99.90
6879;DHT22;3478;51.462;7.338;2023-03-05T13:45:31;6.40;99.90
6879;DHT22;3478;51.462;7.338;2023-03-05T13:50:37;6.60;1.00
6879;DHT22;3478;51.462;7.338;2023-03-05T13:55:39;7.00;79.90
6879;DHT22;3478;51.462;7.338;2023-03-05T14:00:42;7.10;1.00
6879;DHT22;3478;51.462;7.338;2023-03-05T14:05:45;7.00;1.00
6879;DHT22;3478;51.462;7.338;2023-03-05T14:10:48;7.00;1.00
6879;DHT22;3478;51.462;7.338;2023-03-05T14:16:07;7.00;1.00
6879;DHT22;3478;51.462;7.338;2023-03-05T14:21:11;7.00;1.00
6879;DHT22;3478;51.462;7.338;2023-03-05T14:26:22;7.10;1.00
6879;DHT22;3478;51.462;7.338;2023-03-05T14:31:26;6.80;1.00
6879;DHT22;3478;51.462;7.338;2023-03-05T14:36:30;7.00;1.00
6879;DHT22;3478;51.462;7.338;2023-03-05T14:41:38;6.90;1.00
6879;DHT22;3478;51.462;7.338;2023-03-05T14:46:41;6.90;1.00
6879;DHT22;3478;51.462;7.338;2023-03-05T14:51:45;7.00;1.00
6879;DHT22;3478;51.462;7.338;2023-03-05T14:56:47;7.20;99.90
6879;DHT22;3478;51.462;7.338;2023-03-05T15:01:49;7.00;99.90
6879;DHT22;3478;51.462;7.338;2023-03-05T15:06:52;6.80;1.00
6879;DHT22;3478;51.462;7.338;2023-03-05T15:11:54;6.60;1.00
6879;DHT22;3478;51.462;7.338;2023-03-05T15:16:56;6.40;51.00
6879;DHT22;3478;51.462;7.338;2023-03-05T15:21:59;6.40;1.00
6879;DHT22;3478;51.462;7.338;2023-03-05T15:27:02;6.40;1.00
6879;DHT22;3478;51.462;7.338;2023-03-05T15:32:05;6.30;1.00
6879;DHT22;3478;51.462;7.338;2023-03-05T15:37:08;6.30;1.00
6879;DHT22;3478;51.462;7.338;2023-03-05T15:42:10;6.30;1.00
6879;DHT22;3478;51.462;7.338;2023-03-05T15:47:12;6.20;1.00
6879;DHT22;3478;51.462;7.338;2023-03-05T15:52:15;6.20;1.00
6879;DHT22;3478;51.462;7.338;2023-03-05T15:57:18;6.10;1.00
6879;DHT22;3478;51.462;7.338;2023-03-05T16:02:22;6.00;1.00
6879;DHT22;3478;51.462;7.338;2023-03-05T16:07:26;5.90;1.10
6879;DHT22;3478;51.462;7.338;2023-03-05T16:12:34;5.90;99.90
6879;DHT22;3478;51.462;7.338;2023-03-05T16:17:40;6.00;92.50
6879;DHT22;3478;51.462;7.338;2023-03-05T16:22:44;6.00;12.10
6879;DHT22;3478;51.462;7.338;2023-03-05T16:27:46;5.90;1.00
6879;DHT22;3478;51.462;7.338;2023-03-05T16:32:48;5.80;6.70
6879;DHT22;3478;51.462;7.338;2023-03-05T16:37:51;5.80;65.10
6879;DHT22;3478;51.462;7.338;2023-03-05T16:42:53;5.70;99.90
6879;DHT22;3478;51.462;7.338;2023-03-05T16:47:55;5.60;99.90
6879;DHT22;3478;51.462;7.338;2023-03-05T16:52:58;5.60;99.90
6879;DHT22;3478;51.462;7.338;2023-03-05T16:58:00;5.60;1.00
6879;DHT22;3478;51.462;7.338;2023-03-05T17:03:02;5.50;99.90
6879;DHT22;3478;51.462;7.338;2023-03-05T17:08:05;5.40;99.90
6879;DHT22;3478;51.462;7.338;2023-03-05T17:13:07;5.40;1.00
6879;DHT22;3478;51.462;7.338;2023-03-05T17:18:09;5.40;1.00
6879;DHT22;3478;51.462;7.338;2023-03-05T17:23:12;5.50;1.00
6879;DHT22;3478;51.462;7.338;2023-03-05T17:28:14;5.50;1.00
6879;DHT22;3478;51.462;7.338;2023-03-05T17:33:16;5.40;5.70
6879;DHT22;3478;51.462;7.338;2023-03-05T17:38:19;5.40;99.90
6879;DHT22;3478;51.462;7.338;2023-03-05T17:43:21;5.30;1.00
6879;DHT22;3478;51.462;7.338;2023-03-05T17:48:23;5.30;1.00
6879;DHT22;3478;51.462;7.338;2023-03-05T17:53:26;5.30;99.90
6879;DHT22;3478;51.462;7.338;2023-03-05T17:58:28;5.30;99.90
6879;DHT22;3478;51.462;7.338;2023-03-05T18:03:30;5.20;1.00
6879;DHT22;3478;51.462;7.338;2023-03-05T18:08:33;5.20;1.00
6879;DHT22;3478;51.462;7.338;2023-03-05T18:13:35;5.10;1.00
6879;DHT22;3478;51.462;7.338;2023-03-05T18:18:37;5.10;1.00
6879;DHT22;3478;51.462;7.338;2023-03-05T18:23:40;5.10;1.00
6879;DHT22;3478;51.462;7.338;2023-03-05T18:28:42;5.10;1.00
6879;DHT22;3478;51.462;7.338;2023-03-05T18:33:44;5.10;1.00
6879;DHT22;3478;51.462;7.338;2023-03-05T18:38:47;5.20;1.00
6879;DHT22;3478;51.462;7.338;2023-03-05T18:43:49;5.30;1.00
6879;DHT22;3478;51.462;7.338;2023-03-05T18:48:53;5.20;24.10
6879;DHT22;3478;51.462;7.338;2023-03-05T18:53:56;5.10;1.00
6879;DHT22;3478;51.462;7.338;2023-03-05T18:58:58;5.00;99.90
6879;DHT22;3478;51.462;7.338;2023-03-05T19:04:00;5.00;1.00
6879;DHT22;3478;51.462;7.338;2023-03-05T19:09:03;4.90;1.00
6879;DHT22;3478;51.462;7.338;2023-03-05T19:14:13;4.90;99.90
6879;DHT22;3478;51.462;7.338;2023-03-05T19:19:15;4.90;19.70
6879;DHT22;3478;51.462;7.338;2023-03-05T19:24:21;4.40;1.00
6879;DHT22;3478;51.462;7.338;2023-03-05T19:29:25;4.20;1.00
6879;DHT22;3478;51.462;7.338;2023-03-05T19:34:27;4.00;1.00
6879;DHT22;3478;51.462;7.338;2023-03-05T19:39:30;3.90;99.90
6879;DHT22;3478;51.462;7.338;2023-03-05T19:44:33;3.80;1.00
6879;DHT22;3478;51.462;7.338;2023-03-05T19:49:34;3.80;1.00
6879;DHT22;3478;51.462;7.338;2023-03-05T19:54:38;3.80;1.00
6879;DHT22;3478;51.462;7.338;2023-03-05T19:59:39;3.70;1.00
6879;DHT22;3478;51.462;7.338;2023-03-05T20:04:43;3.80;1.00
6879;DHT22;3478;51.462;7.338;2023-03-05T20:09:46;3.80;1.00
6879;DHT22;3478;51.462;7.338;2023-03-05T20:14:50;3.90;1.00
6879;DHT22;3478;51.462;7.338;2023-03-05T20:19:52;3.90;1.00
6879;DHT22;3478;51.462;7.338;2023-03-05T20:24:56;3.90;1.00
6879;DHT22;3478;51.462;7.338;2023-03-05T20:29:58;3.90;1.00
6879;DHT22;3478;51.462;7.338;2023-03-05T20:35:00;4.00;1.00
6879;DHT22;3478;51.462;7.338;2023-03-05T20:40:04;4.00;1.00
6879;DHT22;3478;51.462;7.338;2023-03-05T20:45:07;3.90;1.00
6879;DHT22;3478;51.462;7.338;2023-03-05T20:50:10;4.00;1.00
6879;DHT22;3478;51.462;7.338;2023-03-05T20:55:15;4.00;1.00
6879;DHT22;3478;51.462;7.338;2023-03-05T21:00:17;4.10;1.00
6879;DHT22;3478;51.462;7.338;2023-03-05T21:05:19;4.00;1.00
6879;DHT22;3478;51.462;7.338;2023-03-05T21:10:23;4.00;1.00
6879;DHT22;3478;51.462;7.338;2023-03-05T21:15:26;4.00;1.00
6879;DHT22;3478;51.462;7.338;2023-03-05T21:20:29;4.00;1.00
6879;DHT22;3478;51.462;7.338;2023-03-05T21:25:32;3.90;1.00
6879;DHT22;3478;51.462;7.338;2023-03-05T21:30:36;3.80;1.00
6879;DHT22;3478;51.462;7.338;2023-03-05T21:35:39;3.90;1.00
6879;DHT22;3478;51.462;7.338;2023-03-05T21:40:43;3.80;1.00
6879;DHT22;3478;51.462;7.338;2023-03-05T21:45:48;3.90;1.00
6879;DHT22;3478;51.462;7.338;2023-03-05T21:50:51;3.90;1.00
6879;DHT22;3478;51.462;7.338;2023-03-05T21:55:56;3.90;1.00
6879;DHT22;3478;51.462;7.338;2023-03-05T22:01:10;3.90;1.00
6879;DHT22;3478;51.462;7.338;2023-03-05T22:06:13;3.90;1.00
6879;DHT22;3478;51.462;7.338;2023-03-05T22:11:17;4.00;1.00
6879;DHT22;3478;51.462;7.338;2023-03-05T22:16:21;4.00;1.00
6879;DHT22;3478;51.462;7.338;2023-03-05T22:21:25;4.00;1.00
6879;DHT22;3478;51.462;7.338;2023-03-05T22:26:35;4.00;1.00
6879;DHT22;3478;51.462;7.338;2023-03-05T22:31:38;4.00;1.00
6879;DHT22;3478;51.462;7.338;2023-03-05T22:36:40;4.00;1.00
6879;DHT22;3478;51.462;7.338;2023-03-05T22:41:43;4.00;1.00
6879;DHT22;3478;51.462;7.338;2023-03-05T22:46:45;4.00;1.00
6879;DHT22;3478;51.462;7.338;2023-03-05T22:51:46;4.00;1.00
6879;DHT22;3478;51.462;7.338;2023-03-05T22:56:50;4.10;1.00
6879;DHT22;3478;51.462;7.338;2023-03-05T23:01:51;4.10;1.00
6879;DHT22;3478;51.462;7.338;2023-03-05T23:06:53;4.20;1.00
6879;DHT22;3478;51.462;7.338;2023-03-05T23:11:56;4.10;1.00
6879;DHT22;3478;51.462;7.338;2023-03-05T23:16:58;4.00;1.00
6879;DHT22;3478;51.462;7.338;2023-03-05T23:22:00;4.00;1.00
6879;DHT22;3478;51.462;7.338;2023-03-05T23:27:04;4.00;1.00
6879;DHT22;3478;51.462;7.338;2023-03-05T23:32:06;3.90;1.10
6879;DHT22;3478;51.462;7.338;2023-03-05T23:37:08;4.00;6.90
6879;DHT22;3478;51.462;7.338;2023-03-05T23:42:11;3.90;15.70
6879;DHT22;3478;51.462;7.338;2023-03-05T23:47:13;3.90;33.00
6879;DHT22;3478;51.462;7.338;2023-03-05T23:52:15;3.90;10.30
6879;DHT22;3478;51.462;7.338;2023-03-05T23:57:18;3.90;17.30
